Time;durP1;ratioP1;P1;durP2;ratioP2;P2;SDS_P1;SDS_P2;PMS_P1;PMS_P2;Temp;Humidity;BMP_temperature;BMP_pressure;BME280_temperature;BME280_humidity;BME280_pressure;Samples;Min_cycle;Max_cycle;Signal;HPM_P1;HPM_P2
2021/06/15 00:00:25;;;;;;;1.60;0.77;;;;;;;;;;4951914;28;21127;-71
2021/06/15 00:02:51;;;;;;;1.63;0.80;;;;;;;;;;4952929;28;20294;-70
2021/06/15 00:05:16;;;;;;;1.65;0.90;;;;;;;;;;4953053;28;20035;-70
2021/06/15 00:07:41;;;;;;;1.50;0.80;;;;;;;;;;4952640;28;20042;-71
2021/06/15 00:10:08;;;;;;;0.95;0.80;;;;;;;;;;4952277;28;20028;-70
2021/06/15 00:12:33;;;;;;;1.92;0.98;;;;;;;;;;4949313;28;20023;-70
2021/06/15 00:14:59;;;;;;;1.38;0.88;;;;;;;;;;4952159;28;20035;-70
2021/06/15 00:17:24;;;;;;;1.40;1.00;;;;;;;;;;4952444;28;20398;-70
2021/06/15 00:19:49;;;;;;;1.17;0.90;;;;;;;;;;4951697;28;20560;-71
2021/06/15 00:22:14;;;;;;;1.10;0.75;;;;;;;;;;4951627;28;20795;-70
2021/06/15 00:24:40;;;;;;;1.10;0.65;;;;;;;;;;4950255;29;20398;-71
2021/06/15 00:27:05;;;;;;;1.25;1.02;;;;;;;;;;4951989;28;20050;-71
2021/06/15 00:29:30;;;;;;;1.23;0.85;;;;;;;;;;4951947;28;20050;-70
2021/06/15 00:31:55;;;;;;;0.87;0.70;;;;;;;;;;4951253;28;20025;-70
2021/06/15 00:34:21;;;;;;;1.10;0.80;;;;;;;;;;4951947;28;20027;-71
2021/06/15 00:36:46;;;;;;;1.25;0.70;;;;;;;;;;4952121;28;20082;-71
2021/06/15 00:39:11;;;;;;;1.10;0.80;;;;;;;;;;4951935;28;20027;-71
2021/06/15 00:41:36;;;;;;;1.63;0.60;;;;;;;;;;4951539;28;20019;-70
2021/06/15 00:44:02;;;;;;;1.27;0.80;;;;;;;;;;4951593;28;20283;-70
2021/06/15 00:46:27;;;;;;;1.23;0.70;;;;;;;;;;4951733;28;20263;-70
2021/06/15 00:48:52;;;;;;;1.63;0.90;;;;;;;;;;4951852;28;20102;-71
2021/06/15 00:51:17;;;;;;;0.90;0.70;;;;;;;;;;4951408;28;20634;-70
2021/06/15 00:53:43;;;;;;;1.38;0.80;;;;;;;;;;4951680;28;20027;-71
2021/06/15 00:56:08;;;;;;;1.63;0.93;;;;;;;;;;4951388;28;20097;-70
2021/06/15 00:58:33;;;;;;;1.97;0.70;;;;;;;;;;4951469;28;20274;-71
2021/06/15 01:00:59;;;;;;;1.55;0.70;;;;;;;;;;4951445;28;20271;-70
2021/06/15 01:03:24;;;;;;;1.20;0.80;;;;;;;;;;4951488;28;20466;-71
2021/06/15 01:05:49;;;;;;;1.08;0.80;;;;;;;;;;4950277;28;20023;-70
2021/06/15 01:08:18;;;;;;;1.55;0.80;;;;;;;;;;4951270;28;20182;-70
2021/06/15 01:10:53;;;;;;;1.30;0.80;;;;;;;;;;4950605;28;20478;-70
2021/06/15 01:13:39;;;;;;;1.90;0.88;;;;;;;;;;4951146;28;20509;-71
2021/06/15 01:16:04;;;;;;;1.30;0.85;;;;;;;;;;4951079;28;20028;-70
2021/06/15 01:18:29;;;;;;;1.20;0.88;;;;;;;;;;4951159;28;20031;-70
2021/06/15 01:20:56;;;;;;;1.10;0.60;;;;;;;;;;4951138;28;20417;-71
2021/06/15 01:23:40;;;;;;;1.30;0.63;;;;;;;;;;4951074;28;20031;-71
2021/06/15 01:26:10;;;;;;;1.58;1.05;;;;;;;;;;4951005;28;20034;-70
2021/06/15 01:28:36;;;;;;;1.17;0.68;;;;;;;;;;4951043;28;20085;-69
2021/06/15 01:31:13;;;;;;;1.10;0.63;;;;;;;;;;4949100;28;20426;-71
2021/06/15 01:33:43;;;;;;;1.10;0.70;;;;;;;;;;4950579;28;20034;-70
2021/06/15 01:36:09;;;;;;;1.08;0.63;;;;;;;;;;4949601;29;20047;-73
2021/06/15 01:38:37;;;;;;;1.73;0.90;;;;;;;;;;4950897;28;20031;-71
2021/06/15 01:41:05;;;;;;;0.82;0.60;;;;;;;;;;4949134;29;20414;-70
2021/06/15 01:43:31;;;;;;;1.65;0.80;;;;;;;;;;4949415;29;20034;-71
2021/06/15 01:45:56;;;;;;;0.57;0.50;;;;;;;;;;4949445;28;20027;-70
2021/06/15 01:48:24;;;;;;;1.42;1.00;;;;;;;;;;4950982;28;20417;-70
2021/06/15 01:50:49;;;;;;;1.33;0.98;;;;;;;;;;4952133;28;20031;-70
2021/06/15 01:53:15;;;;;;;1.90;0.80;;;;;;;;;;4952980;29;20031;-70
2021/06/15 01:55:54;;;;;;;1.05;0.70;;;;;;;;;;4952690;29;20119;-70
2021/06/15 01:58:20;;;;;;;1.10;0.80;;;;;;;;;;4952000;28;20035;-70
2021/06/15 02:00:46;;;;;;;1.10;0.60;;;;;;;;;;4951172;29;20027;-71
2021/06/15 02:03:11;;;;;;;1.13;0.70;;;;;;;;;;4950452;28;20407;-72
2021/06/15 02:05:41;;;;;;;1.27;0.97;;;;;;;;;;4949268;29;20326;-72
2021/06/15 02:08:07;;;;;;;1.00;0.75;;;;;;;;;;4950133;29;20259;-72
2021/06/15 02:10:32;;;;;;;1.10;0.82;;;;;;;;;;4950161;28;20151;-72
2021/06/15 02:12:57;;;;;;;1.10;0.70;;;;;;;;;;4950370;28;20461;-72
2021/06/15 02:15:23;;;;;;;0.90;0.60;;;;;;;;;;4950701;28;20027;-72
2021/06/15 02:17:48;;;;;;;1.00;0.70;;;;;;;;;;4949309;28;20122;-72
2021/06/15 02:20:14;;;;;;;1.30;0.73;;;;;;;;;;4948803;28;20118;-71
2021/06/15 02:22:44;;;;;;;1.20;0.80;;;;;;;;;;4949247;28;20114;-72
2021/06/15 02:25:09;;;;;;;1.20;0.80;;;;;;;;;;4950100;28;20035;-72
2021/06/15 02:27:34;;;;;;;1.08;0.70;;;;;;;;;;4948637;28;20094;-73
2021/06/15 02:30:00;;;;;;;1.27;0.65;;;;;;;;;;4944285;28;20054;-70
2021/06/15 02:32:30;;;;;;;0.70;0.50;;;;;;;;;;4929507;29;20119;-71
2021/06/15 02:34:55;;;;;;;;;;;;;;;;;;4931380;29;20362;-72
2021/06/15 02:37:22;;;;;;;0.80;0.70;;;;;;;;;;4930855;29;19998;-70
2021/06/15 02:39:47;;;;;;;1.33;0.77;;;;;;;;;;4929551;29;20264;-69
2021/06/15 02:42:13;;;;;;;1.20;0.90;;;;;;;;;;4929429;29;20566;-71
2021/06/15 02:44:40;;;;;;;0.80;0.50;;;;;;;;;;4930527;29;20291;-70
2021/06/15 02:47:05;;;;;;;0.95;0.73;;;;;;;;;;4930689;29;20059;-71
2021/06/15 02:49:31;;;;;;;1.20;0.60;;;;;;;;;;4913411;29;20051;-71
2021/06/15 02:52:06;;;;;;;1.10;0.70;;;;;;;;;;4929086;29;20399;-69
2021/06/15 02:54:43;;;;;;;1.17;0.80;;;;;;;;;;4930988;29;20023;-71
2021/06/15 02:57:08;;;;;;;1.00;0.65;;;;;;;;;;4930611;29;20031;-71
2021/06/15 02:59:34;;;;;;;1.10;0.80;;;;;;;;;;4930413;29;20040;-70
2021/06/15 03:02:00;;;;;;;0.90;0.60;;;;;;;;;;4930302;29;20059;-70
2021/06/15 03:04:25;;;;;;;1.77;0.90;;;;;;;;;;4930416;29;20051;-70
2021/06/15 03:06:50;;;;;;;1.02;0.70;;;;;;;;;;4930544;29;20829;-71
2021/06/15 03:09:15;;;;;;;0.95;0.60;;;;;;;;;;4930554;29;20186;-71
2021/06/15 03:11:48;;;;;;;1.30;0.67;;;;;;;;;;4928747;29;20470;-71
2021/06/15 03:14:23;;;;;;;0.85;0.65;;;;;;;;;;4930461;29;20019;-70
2021/06/15 03:16:48;;;;;;;0.98;0.70;;;;;;;;;;4930269;29;20031;-71
2021/06/15 03:19:17;;;;;;;1.05;0.60;;;;;;;;;;4929144;29;20036;-71
2021/06/15 03:21:49;;;;;;;1.08;0.68;;;;;;;;;;4930067;29;20019;-71
2021/06/15 03:24:18;;;;;;;0.63;0.60;;;;;;;;;;4929121;29;20028;-73
2021/06/15 03:26:50;;;;;;;0.90;0.60;;;;;;;;;;4929095;29;20442;-70
2021/06/15 03:29:17;;;;;;;1.23;0.70;;;;;;;;;;4930250;29;20516;-72
2021/06/15 03:31:43;;;;;;;1.02;0.82;;;;;;;;;;4929890;29;20023;-73
2021/06/15 03:34:12;;;;;;;0.80;0.60;;;;;;;;;;4932571;29;20035;-73
2021/06/15 03:36:40;;;;;;;1.00;0.77;;;;;;;;;;4933954;29;20751;-70
2021/06/15 03:39:06;;;;;;;1.40;0.70;;;;;;;;;;4932516;29;20042;-73
2021/06/15 03:41:31;;;;;;;1.15;0.80;;;;;;;;;;4933742;29;20020;-72
2021/06/15 03:43:57;;;;;;;1.00;0.80;;;;;;;;;;4933812;29;20158;-69
2021/06/15 03:46:22;;;;;;;1.08;0.70;;;;;;;;;;4932630;29;20267;-72
2021/06/15 03:48:48;;;;;;;1.40;0.60;;;;;;;;;;4932463;29;20486;-69
2021/06/15 03:51:18;;;;;;;0.60;0.50;;;;;;;;;;4933470;29;20031;-69
2021/06/15 03:53:44;;;;;;;1.75;0.90;;;;;;;;;;4932377;29;20486;-69
2021/06/15 03:56:09;;;;;;;2.70;0.90;;;;;;;;;;4932214;29;20058;-70
2021/06/15 03:58:35;;;;;;;2.28;0.70;;;;;;;;;;4932155;29;20032;-69
2021/06/15 04:01:01;;;;;;;1.35;0.82;;;;;;;;;;4931930;29;20144;-69
2021/06/15 04:03:26;;;;;;;2.95;0.80;;;;;;;;;;4931955;29;20840;-69
2021/06/15 04:05:53;;;;;;;2.20;0.83;;;;;;;;;;4932106;29;20095;-69
2021/06/15 04:08:19;;;;;;;2.63;0.90;;;;;;;;;;4932162;29;20642;-69
2021/06/15 04:10:45;;;;;;;2.28;0.98;;;;;;;;;;4931752;29;20027;-69
2021/06/15 04:13:10;;;;;;;1.98;0.93;;;;;;;;;;4931766;29;20044;-71
2021/06/15 04:15:35;;;;;;;2.07;0.83;;;;;;;;;;4933161;29;20036;-71
2021/06/15 04:18:01;;;;;;;1.73;0.93;;;;;;;;;;4932943;29;20039;-70
2021/06/15 04:20:29;;;;;;;1.40;0.80;;;;;;;;;;4931183;29;20027;-68
2021/06/15 04:22:54;;;;;;;2.58;0.98;;;;;;;;;;4932600;29;20031;-69
2021/06/15 04:25:21;;;;;;;3.10;1.10;;;;;;;;;;4932535;29;20039;-69
2021/06/15 04:27:46;;;;;;;3.13;0.88;;;;;;;;;;4932835;29;20118;-68
2021/06/15 04:30:12;;;;;;;1.73;0.80;;;;;;;;;;4932814;29;20119;-68
2021/06/15 04:32:46;;;;;;;3.33;1.00;;;;;;;;;;4933421;28;20102;-73
2021/06/15 04:35:11;;;;;;;2.17;0.88;;;;;;;;;;4932801;29;20055;-69
2021/06/15 04:37:37;;;;;;;1.80;0.80;;;;;;;;;;4946714;28;20070;-70
2021/06/15 04:40:03;;;;;;;1.77;0.90;;;;;;;;;;4949756;28;20114;-69
2021/06/15 04:42:31;;;;;;;2.10;0.73;;;;;;;;;;4950913;28;20031;-69
2021/06/15 04:44:57;;;;;;;2.40;0.80;;;;;;;;;;4950233;28;20074;-70
2021/06/15 04:47:26;;;;;;;2.93;1.17;;;;;;;;;;4949277;28;20483;-69
2021/06/15 04:49:51;;;;;;;2.13;0.90;;;;;;;;;;4950946;28;20482;-70
2021/06/15 04:52:17;;;;;;;4.73;1.03;;;;;;;;;;4960657;28;20034;-69
2021/06/15 04:54:47;;;;;;;2.97;1.00;;;;;;;;;;4949479;28;20269;-69
2021/06/15 04:57:13;;;;;;;4.60;1.00;;;;;;;;;;4949265;28;20030;-71
2021/06/15 04:59:39;;;;;;;3.20;1.05;;;;;;;;;;4949254;28;20134;-72
2021/06/15 05:02:04;;;;;;;3.08;1.00;;;;;;;;;;4949886;28;20031;-70
2021/06/15 05:04:29;;;;;;;2.45;1.00;;;;;;;;;;4949434;28;20058;-71
2021/06/15 05:06:54;;;;;;;2.90;1.20;;;;;;;;;;4950708;28;20474;-71
2021/06/15 05:09:29;;;;;;;2.95;1.20;;;;;;;;;;4950476;28;20278;-70
2021/06/15 05:11:54;;;;;;;1.90;1.00;;;;;;;;;;4949012;28;20034;-71
2021/06/15 05:14:20;;;;;;;2.58;1.10;;;;;;;;;;4949267;28;20505;-69
2021/06/15 05:16:45;;;;;;;2.80;1.30;;;;;;;;;;4956708;28;20545;-70
2021/06/15 05:19:10;;;;;;;2.23;1.03;;;;;;;;;;4950626;28;20031;-71
2021/06/15 05:21:51;;;;;;;2.53;1.20;;;;;;;;;;4948364;28;20473;-72
2021/06/15 05:24:35;;;;;;;3.53;1.50;;;;;;;;;;4950091;28;20039;-71
2021/06/15 05:27:00;;;;;;;2.08;1.10;;;;;;;;;;4950317;28;20030;-71
2021/06/15 05:29:26;;;;;;;3.88;1.38;;;;;;;;;;4950761;28;20218;-70
2021/06/15 05:31:51;;;;;;;4.37;2.00;;;;;;;;;;4949328;28;20130;-68
2021/06/15 05:34:16;;;;;;;3.03;1.33;;;;;;;;;;4950174;28;20286;-69
2021/06/15 05:36:42;;;;;;;4.28;1.40;;;;;;;;;;4948452;28;20034;-71
2021/06/15 05:39:07;;;;;;;2.95;1.63;;;;;;;;;;4948509;28;20466;-71
2021/06/15 05:41:32;;;;;;;4.17;1.63;;;;;;;;;;4949746;28;20045;-71
2021/06/15 05:43:58;;;;;;;2.83;1.38;;;;;;;;;;4949831;28;20290;-71
2021/06/15 05:46:23;;;;;;;4.77;1.57;;;;;;;;;;4949498;28;20028;-71
2021/06/15 05:48:48;;;;;;;3.50;1.50;;;;;;;;;;4954937;28;20378;-71
2021/06/15 05:51:13;;;;;;;3.20;1.60;;;;;;;;;;4966357;28;20034;-72
2021/06/15 05:53:39;;;;;;;4.60;1.50;;;;;;;;;;4954509;28;20023;-72
2021/06/15 05:56:07;;;;;;;3.13;1.70;;;;;;;;;;4956083;28;20274;-71
2021/06/15 05:58:32;;;;;;;3.70;2.03;;;;;;;;;;4948240;28;20039;-71
2021/06/15 06:00:57;;;;;;;4.47;1.83;;;;;;;;;;4935662;28;20035;-70
2021/06/15 06:03:31;;;;;;;2.50;1.70;;;;;;;;;;4942542;28;20066;-69
2021/06/15 06:08:40;;;;;;;4.63;1.70;;;;;;;;;;4939352;28;20053;-73
2021/06/15 06:11:05;;;;;;;5.68;2.13;;;;;;;;;;4957425;28;20023;-72
2021/06/15 06:13:31;;;;;;;6.27;2.00;;;;;;;;;;4939068;28;20026;-70
2021/06/15 06:15:57;;;;;;;4.90;2.00;;;;;;;;;;4946946;28;20362;-71
2021/06/15 06:18:22;;;;;;;3.40;2.20;;;;;;;;;;4939336;28;20089;-72
2021/06/15 06:20:49;;;;;;;4.57;2.10;;;;;;;;;;4952101;28;20024;-68
2021/06/15 06:23:14;;;;;;;3.63;2.15;;;;;;;;;;4934101;28;20055;-68
2021/06/15 06:25:40;;;;;;;4.43;1.90;;;;;;;;;;4938618;28;20502;-68
2021/06/15 06:28:05;;;;;;;4.20;2.00;;;;;;;;;;4918846;28;20118;-67
2021/06/15 06:30:31;;;;;;;6.22;2.33;;;;;;;;;;4928477;28;20602;-67
2021/06/15 06:32:56;;;;;;;4.50;1.95;;;;;;;;;;4941375;28;20122;-67
2021/06/15 06:35:21;;;;;;;3.53;1.73;;;;;;;;;;4951860;28;20037;-67
2021/06/15 06:37:46;;;;;;;4.00;2.15;;;;;;;;;;4961997;28;20286;-67
2021/06/15 06:40:12;;;;;;;3.03;2.28;;;;;;;;;;4964081;28;20114;-68
2021/06/15 06:42:40;;;;;;;4.10;2.00;;;;;;;;;;4948860;28;20035;-68
2021/06/15 06:45:06;;;;;;;3.13;1.98;;;;;;;;;;4943160;28;20046;-67
2021/06/15 06:47:31;;;;;;;5.63;1.90;;;;;;;;;;4951861;28;21510;-66
2021/06/15 06:49:57;;;;;;;5.60;2.40;;;;;;;;;;4951083;28;20476;-67
2021/06/15 06:52:22;;;;;;;4.25;2.17;;;;;;;;;;4955036;28;20281;-67
2021/06/15 06:55:02;;;;;;;3.13;2.20;;;;;;;;;;4946316;28;20159;-67
2021/06/15 06:57:28;;;;;;;3.78;1.80;;;;;;;;;;4942518;28;20035;-67
2021/06/15 06:59:53;;;;;;;4.20;1.80;;;;;;;;;;4942361;28;20046;-67
2021/06/15 07:02:18;;;;;;;3.83;1.73;;;;;;;;;;4945072;28;20062;-67
2021/06/15 07:04:44;;;;;;;2.58;1.80;;;;;;;;;;4945178;28;20306;-67
2021/06/15 07:07:10;;;;;;;4.40;2.15;;;;;;;;;;4942490;28;20050;-67
2021/06/15 07:09:36;;;;;;;3.85;1.70;;;;;;;;;;4938841;28;20086;-67
2021/06/15 07:12:01;;;;;;;3.00;1.87;;;;;;;;;;4950528;28;20024;-67
2021/06/15 07:14:26;;;;;;;2.38;1.65;;;;;;;;;;4950534;28;20043;-67
2021/06/15 07:16:51;;;;;;;4.80;2.00;;;;;;;;;;4938705;28;20015;-66
2021/06/15 07:19:17;;;;;;;3.50;2.07;;;;;;;;;;4939953;28;20279;-67
2021/06/15 07:21:42;;;;;;;3.37;2.20;;;;;;;;;;4944691;28;20031;-67
2021/06/15 07:24:07;;;;;;;2.88;1.90;;;;;;;;;;4941612;28;20804;-67
2021/06/15 07:26:33;;;;;;;3.83;1.80;;;;;;;;;;4949205;28;20465;-67
2021/06/15 07:28:59;;;;;;;3.92;1.85;;;;;;;;;;4944370;28;20079;-67
2021/06/15 07:31:25;;;;;;;3.55;2.08;;;;;;;;;;4940939;28;20019;-67
2021/06/15 07:33:50;;;;;;;3.45;1.83;;;;;;;;;;4946082;28;20023;-69
2021/06/15 07:36:15;;;;;;;3.80;2.10;;;;;;;;;;4953960;28;20143;-67
2021/06/15 07:38:40;;;;;;;2.77;1.90;;;;;;;;;;4938450;28;20023;-67
2021/06/15 07:41:06;;;;;;;3.83;2.03;;;;;;;;;;4948342;28;20528;-67
2021/06/15 07:43:32;;;;;;;3.38;2.30;;;;;;;;;;4950425;28;20993;-66
2021/06/15 07:45:57;;;;;;;4.07;2.20;;;;;;;;;;4951510;28;20071;-67
2021/06/15 07:48:22;;;;;;;4.05;2.00;;;;;;;;;;4951421;28;20492;-69
2021/06/15 07:50:48;;;;;;;4.82;2.00;;;;;;;;;;4950647;28;20081;-67
2021/06/15 07:53:13;;;;;;;3.50;2.30;;;;;;;;;;4933636;28;20023;-67
2021/06/15 07:55:38;;;;;;;2.70;1.70;;;;;;;;;;4950103;28;20131;-66
2021/06/15 07:58:04;;;;;;;3.80;2.17;;;;;;;;;;4949254;28;20027;-67
2021/06/15 08:00:29;;;;;;;3.40;2.00;;;;;;;;;;4963922;28;20038;-67
2021/06/15 08:02:55;;;;;;;3.78;2.03;;;;;;;;;;4965139;28;20107;-68
2021/06/15 08:05:20;;;;;;;2.80;1.90;;;;;;;;;;4946582;28;20414;-67
2021/06/15 08:07:51;;;;;;;2.78;1.88;;;;;;;;;;4942090;28;20019;-66
2021/06/15 08:10:19;;;;;;;2.60;1.88;;;;;;;;;;4964131;28;20469;-67
2021/06/15 08:12:44;;;;;;;2.85;2.30;;;;;;;;;;4958962;28;20135;-70
2021/06/15 08:15:09;;;;;;;3.38;1.80;;;;;;;;;;4928564;29;20534;-71
2021/06/15 08:17:35;;;;;;;3.60;1.60;;;;;;;;;;4932947;29;20031;-68
2021/06/15 08:20:00;;;;;;;2.60;1.90;;;;;;;;;;4940786;28;20042;-71
2021/06/15 08:22:25;;;;;;;3.05;1.92;;;;;;;;;;4945294;28;20038;-68
2021/06/15 08:24:51;;;;;;;3.13;2.07;;;;;;;;;;4948274;29;20045;-71
2021/06/15 08:27:16;;;;;;;3.70;2.27;;;;;;;;;;4962911;28;20431;-69
2021/06/15 08:29:41;;;;;;;4.17;2.27;;;;;;;;;;4949752;28;20690;-69
2021/06/15 08:32:06;;;;;;;2.57;1.70;;;;;;;;;;4949445;28;20425;-68
2021/06/15 08:34:34;;;;;;;3.40;2.03;;;;;;;;;;4947410;28;20496;-67
2021/06/15 08:37:00;;;;;;;2.97;2.10;;;;;;;;;;4946878;28;20023;-69
2021/06/15 08:39:25;;;;;;;3.80;1.93;;;;;;;;;;4943472;28;20111;-69
2021/06/15 08:41:50;;;;;;;2.67;1.83;;;;;;;;;;4935604;28;20803;-70
2021/06/15 08:44:15;;;;;;;2.63;1.80;;;;;;;;;;4950466;28;20309;-70
2021/06/15 08:46:41;;;;;;;3.53;2.00;;;;;;;;;;4950885;28;20028;-70
2021/06/15 08:49:06;;;;;;;2.65;2.00;;;;;;;;;;4950759;28;20031;-70
2021/06/15 08:51:32;;;;;;;2.95;1.88;;;;;;;;;;4950325;28;20418;-69
2021/06/15 08:54:03;;;;;;;3.58;2.10;;;;;;;;;;4965294;28;20035;-71
2021/06/15 08:56:31;;;;;;;3.22;1.88;;;;;;;;;;4934246;29;20024;-68
2021/06/15 08:59:02;;;;;;;2.88;2.10;;;;;;;;;;4932047;28;20039;-69
2021/06/15 09:01:27;;;;;;;3.00;2.30;;;;;;;;;;4948045;28;20031;-67
2021/06/15 09:03:53;;;;;;;4.60;1.80;;;;;;;;;;4936156;28;20438;-70
2021/06/15 09:06:18;;;;;;;2.65;1.85;;;;;;;;;;4936214;28;20193;-75
2021/06/15 09:09:10;;;;;;;2.38;1.80;;;;;;;;;;4949562;28;20504;-71
2021/06/15 09:11:55;;;;;;;2.60;1.80;;;;;;;;;;4946545;28;20123;-71
2021/06/15 09:14:39;;;;;;;6.47;1.60;;;;;;;;;;4936704;28;20150;-71
2021/06/15 09:17:04;;;;;;;3.25;1.67;;;;;;;;;;4946923;28;20142;-71
2021/06/15 09:19:29;;;;;;;3.60;1.60;;;;;;;;;;4946255;28;20110;-71
2021/06/15 09:21:57;;;;;;;2.63;1.50;;;;;;;;;;4949728;28;20031;-72
2021/06/15 09:24:23;;;;;;;3.15;1.50;;;;;;;;;;4949053;28;20403;-71
2021/06/15 09:27:10;;;;;;;3.10;1.40;;;;;;;;;;4948686;28;20038;-71
2021/06/15 09:29:38;;;;;;;3.08;1.35;;;;;;;;;;4942569;28;20030;-71
2021/06/15 09:32:04;;;;;;;1.67;1.17;;;;;;;;;;4945551;28;20027;-71
2021/06/15 09:34:29;;;;;;;2.40;1.30;;;;;;;;;;4941881;28;20031;-71
2021/06/15 09:36:54;;;;;;;3.17;1.53;;;;;;;;;;4941913;28;20058;-75
2021/06/15 09:39:19;;;;;;;2.27;1.47;;;;;;;;;;4942143;28;20294;-75
2021/06/15 09:41:46;;;;;;;2.90;1.70;;;;;;;;;;4935762;28;20374;-71
2021/06/15 09:44:21;;;;;;;3.22;1.40;;;;;;;;;;4938716;28;20817;-70
2021/06/15 09:46:47;;;;;;;2.53;1.10;;;;;;;;;;4954472;28;20026;-70
2021/06/15 09:49:13;;;;;;;2.15;1.10;;;;;;;;;;4953068;28;20432;-70
2021/06/15 09:51:41;;;;;;;1.92;1.20;;;;;;;;;;4940280;28;20098;-71
2021/06/15 09:54:06;;;;;;;2.05;1.25;;;;;;;;;;4938680;28;20035;-71
2021/06/15 09:56:32;;;;;;;1.77;1.42;;;;;;;;;;4938341;28;20031;-70
2021/06/15 09:59:00;;;;;;;1.77;1.33;;;;;;;;;;4939560;28;20035;-71
2021/06/15 10:01:25;;;;;;;2.85;1.33;;;;;;;;;;4945789;28;20031;-70
2021/06/15 10:04:09;;;;;;;1.73;1.40;;;;;;;;;;4934887;28;20054;-71
2021/06/15 10:06:35;;;;;;;2.60;1.50;;;;;;;;;;4936255;28;20275;-71
2021/06/15 10:09:00;;;;;;;2.33;1.35;;;;;;;;;;4947080;28;20083;-71
2021/06/15 10:11:25;;;;;;;3.17;1.50;;;;;;;;;;4950330;28;20475;-71
2021/06/15 10:13:51;;;;;;;2.55;1.30;;;;;;;;;;4939327;28;20345;-70
2021/06/15 10:16:16;;;;;;;3.33;1.70;;;;;;;;;;4945295;28;20560;-71
2021/06/15 10:18:41;;;;;;;2.77;1.43;;;;;;;;;;4949340;28;20506;-71
2021/06/15 10:21:07;;;;;;;3.72;1.40;;;;;;;;;;4942227;28;20565;-71
2021/06/15 10:23:32;;;;;;;3.55;1.35;;;;;;;;;;4942270;28;20028;-71
2021/06/15 10:25:58;;;;;;;1.50;1.30;;;;;;;;;;4944434;28;20413;-71
2021/06/15 10:28:24;;;;;;;2.28;1.50;;;;;;;;;;4942919;28;20465;-71
2021/06/15 10:30:49;;;;;;;3.00;1.38;;;;;;;;;;4944343;28;20015;-71
2021/06/15 10:33:15;;;;;;;2.80;1.37;;;;;;;;;;4943087;28;20035;-71
2021/06/15 10:35:43;;;;;;;1.98;1.30;;;;;;;;;;4941676;28;20042;-71
2021/06/15 10:38:08;;;;;;;3.42;1.38;;;;;;;;;;4946057;28;20039;-71
2021/06/15 10:40:34;;;;;;;3.33;1.50;;;;;;;;;;4936640;28;20391;-71
2021/06/15 10:43:11;;;;;;;7.15;1.50;;;;;;;;;;4946218;28;20274;-70
2021/06/15 10:45:36;;;;;;;11.00;1.92;;;;;;;;;;4947248;28;21333;-71
2021/06/15 10:48:04;;;;;;;7.95;1.67;;;;;;;;;;4945271;28;20024;-71
2021/06/15 10:50:44;;;;;;;5.47;1.20;;;;;;;;;;4936288;28;20042;-77
2021/06/15 10:53:10;;;;;;;3.13;1.45;;;;;;;;;;4933924;28;20127;-68
2021/06/15 10:55:40;;;;;;;5.13;1.30;;;;;;;;;;4939720;28;20118;-68
2021/06/15 10:58:05;;;;;;;4.18;1.48;;;;;;;;;;4946620;28;20030;-68
2021/06/15 11:00:30;;;;;;;4.50;1.60;;;;;;;;;;4946667;28;20086;-68
2021/06/15 11:03:14;;;;;;;6.17;1.47;;;;;;;;;;4934651;28;20298;-68
2021/06/15 11:05:40;;;;;;;2.95;1.50;;;;;;;;;;4935589;28;20098;-68
2021/06/15 11:08:20;;;;;;;2.78;1.10;;;;;;;;;;4944587;28;20529;-68
2021/06/15 11:10:59;;;;;;;4.47;1.50;;;;;;;;;;4937101;28;20030;-67
2021/06/15 11:13:40;;;;;;;2.75;1.30;;;;;;;;;;4947360;28;20114;-68
2021/06/15 11:16:05;;;;;;;2.80;1.33;;;;;;;;;;4936745;28;20055;-67
2021/06/15 11:18:30;;;;;;;2.28;1.10;;;;;;;;;;4953143;28;20058;-68
2021/06/15 11:20:56;;;;;;;4.93;1.40;;;;;;;;;;4936153;28;20062;-68
2021/06/15 11:23:25;;;;;;;2.58;1.13;;;;;;;;;;4954914;28;20283;-68
2021/06/15 11:25:59;;;;;;;3.75;1.33;;;;;;;;;;4941746;28;20023;-68
2021/06/15 11:28:37;;;;;;;3.03;1.23;;;;;;;;;;4943146;28;20032;-68
2021/06/15 11:31:18;;;;;;;3.90;1.30;;;;;;;;;;4942478;28;20780;-67
2021/06/15 11:33:59;;;;;;;2.70;1.20;;;;;;;;;;4943627;28;20027;-68
2021/06/15 11:36:39;;;;;;;3.03;1.63;;;;;;;;;;4942353;28;20402;-67
2021/06/15 11:39:29;;;;;;;3.90;1.30;;;;;;;;;;4944280;28;20034;-67
2021/06/15 11:42:09;;;;;;;2.63;1.40;;;;;;;;;;4944663;28;20040;-67
2021/06/15 11:44:34;;;;;;;;;;;;;;;;;;4939235;28;20023;-67
2021/06/15 11:47:23;;;;;;;2.90;1.50;;;;;;;;;;4938187;28;20029;-69
2021/06/15 11:50:07;;;;;;;2.42;1.40;;;;;;;;;;4932684;28;20039;-67
2021/06/15 11:52:32;;;;;;;2.75;1.10;;;;;;;;;;4944347;28;20099;-67
2021/06/15 11:54:58;;;;;;;1.70;1.15;;;;;;;;;;4938235;28;20118;-67
2021/06/15 11:57:23;;;;;;;4.82;1.30;;;;;;;;;;4953567;28;20090;-67
2021/06/15 11:59:49;;;;;;;5.03;1.33;;;;;;;;;;4941825;28;20027;-67
2021/06/15 12:02:20;;;;;;;2.13;1.15;;;;;;;;;;4937401;28;20039;-67
2021/06/15 12:05:04;;;;;;;3.83;1.38;;;;;;;;;;4940565;28;20338;-67
2021/06/15 12:07:31;;;;;;;2.53;1.38;;;;;;;;;;4943658;28;20039;-67
2021/06/15 12:10:07;;;;;;;3.35;1.30;;;;;;;;;;4949919;28;20023;-67
2021/06/15 12:12:51;;;;;;;3.05;1.35;;;;;;;;;;4950534;28;20085;-67
2021/06/15 12:15:23;;;;;;;2.08;1.10;;;;;;;;;;4949978;28;20031;-67
2021/06/15 12:17:49;;;;;;;2.08;1.30;;;;;;;;;;4944076;28;20027;-67
2021/06/15 12:20:24;;;;;;;2.78;1.20;;;;;;;;;;4948519;28;20032;-67
2021/06/15 12:22:50;;;;;;;2.38;1.20;;;;;;;;;;4933882;28;20399;-68
2021/06/15 12:25:15;;;;;;;2.65;1.25;;;;;;;;;;4929684;28;20027;-67
2021/06/15 12:27:41;;;;;;;2.40;1.20;;;;;;;;;;4943037;28;20111;-67
2021/06/15 12:30:06;;;;;;;2.80;1.40;;;;;;;;;;4949525;28;20446;-67
2021/06/15 12:32:47;;;;;;;2.53;1.27;;;;;;;;;;4949753;28;20839;-67
2021/06/15 12:35:18;;;;;;;1.80;1.35;;;;;;;;;;4948765;28;20027;-68
2021/06/15 12:37:44;;;;;;;1.73;1.13;;;;;;;;;;4947107;28;20031;-67
2021/06/15 12:40:09;;;;;;;2.60;1.50;;;;;;;;;;4960904;28;20722;-67
2021/06/15 12:42:35;;;;;;;2.60;1.20;;;;;;;;;;4948784;28;20414;-67
2021/06/15 12:45:01;;;;;;;3.80;1.40;;;;;;;;;;4943420;28;20027;-68
2021/06/15 12:47:27;;;;;;;1.48;1.10;;;;;;;;;;4931949;28;20427;-67
2021/06/15 12:49:53;;;;;;;2.45;1.25;;;;;;;;;;4947599;28;20725;-68
2021/06/15 12:52:18;;;;;;;3.13;1.40;;;;;;;;;;4949353;28;20478;-69
2021/06/15 12:54:45;;;;;;;2.50;1.20;;;;;;;;;;4964175;28;20109;-67
2021/06/15 12:57:17;;;;;;;2.17;1.33;;;;;;;;;;4946888;28;20452;-69
2021/06/15 12:59:43;;;;;;;2.83;1.33;;;;;;;;;;4940025;28;20059;-72
2021/06/15 13:02:17;;;;;;;3.83;1.48;;;;;;;;;;4946144;28;20059;-70
2021/06/15 13:04:46;;;;;;;2.63;1.20;;;;;;;;;;4910550;29;20139;-75
2021/06/15 13:07:12;;;;;;;2.33;1.20;;;;;;;;;;4902772;29;20091;-75
2021/06/15 13:09:38;;;;;;;2.67;1.27;;;;;;;;;;4911636;29;20480;-72
2021/06/15 13:12:09;;;;;;;2.58;1.00;;;;;;;;;;4903098;29;20036;-72
2021/06/15 13:14:36;;;;;;;2.67;1.00;;;;;;;;;;4904035;29;20078;-74
2021/06/15 13:17:05;;;;;;;2.08;0.90;;;;;;;;;;4903888;29;20046;-67
2021/06/15 13:19:37;;;;;;;3.47;1.30;;;;;;;;;;4899094;29;20123;-69
2021/06/15 13:22:03;;;;;;;2.78;1.50;;;;;;;;;;4899256;29;20032;-67
2021/06/15 13:24:32;;;;;;;10.70;2.08;;;;;;;;;;4901195;29;20039;-68
2021/06/15 13:26:58;;;;;;;4.63;1.77;;;;;;;;;;4905139;29;20032;-67
2021/06/15 13:29:27;;;;;;;12.40;1.65;;;;;;;;;;4906064;29;20037;-69
2021/06/15 13:31:52;;;;;;;4.03;1.60;;;;;;;;;;4899389;29;20035;-68
2021/06/15 13:34:17;;;;;;;4.28;1.50;;;;;;;;;;4908849;29;20483;-68
2021/06/15 13:36:43;;;;;;;4.40;1.70;;;;;;;;;;4901326;29;20075;-68
2021/06/15 13:39:16;;;;;;;2.55;1.60;;;;;;;;;;4896777;29;20032;-68
2021/06/15 13:41:42;;;;;;;2.25;1.30;;;;;;;;;;4906021;29;20706;-68
2021/06/15 13:44:07;;;;;;;1.75;1.17;;;;;;;;;;4895454;29;20038;-68
2021/06/15 13:46:32;;;;;;;3.10;1.40;;;;;;;;;;4906430;29;20407;-69
2021/06/15 13:48:58;;;;;;;3.38;1.10;;;;;;;;;;4909959;29;20111;-68
2021/06/15 13:51:23;;;;;;;1.50;1.20;;;;;;;;;;4910147;29;20480;-69
2021/06/15 13:53:49;;;;;;;3.35;1.50;;;;;;;;;;4909406;29;20080;-67
2021/06/15 13:56:16;;;;;;;2.33;1.20;;;;;;;;;;4905703;29;20143;-69
2021/06/15 13:58:41;;;;;;;4.22;1.30;;;;;;;;;;4895977;29;20020;-68
2021/06/15 14:01:07;;;;;;;1.77;1.17;;;;;;;;;;4907016;29;20031;-68
2021/06/15 14:03:33;;;;;;;2.20;1.20;;;;;;;;;;4921830;28;20090;-68
2021/06/15 14:05:58;;;;;;;2.38;1.08;;;;;;;;;;4942599;28;20035;-68
2021/06/15 14:08:24;;;;;;;2.13;1.08;;;;;;;;;;4947724;28;20027;-68
2021/06/15 14:10:49;;;;;;;2.40;1.20;;;;;;;;;;4945917;28;20051;-69
2021/06/15 14:13:14;;;;;;;3.00;1.27;;;;;;;;;;4937418;28;20370;-67
2021/06/15 14:15:40;;;;;;;2.90;1.10;;;;;;;;;;4948494;28;20789;-68
2021/06/15 14:18:05;;;;;;;1.95;1.00;;;;;;;;;;4935250;28;20474;-68
2021/06/15 14:20:31;;;;;;;1.53;1.00;;;;;;;;;;4943642;28;20114;-69
2021/06/15 14:22:57;;;;;;;2.97;1.15;;;;;;;;;;4935826;28;20287;-68
2021/06/15 14:25:23;;;;;;;1.42;1.00;;;;;;;;;;4941565;28;20023;-69
2021/06/15 14:27:48;;;;;;;4.28;1.20;;;;;;;;;;4937452;28;20494;-69
2021/06/15 14:30:14;;;;;;;2.20;1.00;;;;;;;;;;4941266;28;20020;-68
2021/06/15 14:32:39;;;;;;;3.60;1.15;;;;;;;;;;4936053;28;20098;-68
2021/06/15 14:35:05;;;;;;;2.07;0.90;;;;;;;;;;4937643;28;20030;-67
2021/06/15 14:37:30;;;;;;;1.80;1.00;;;;;;;;;;4936807;28;20325;-70
2021/06/15 14:39:56;;;;;;;2.10;1.00;;;;;;;;;;4933480;28;20499;-71
2021/06/15 14:42:21;;;;;;;2.20;0.98;;;;;;;;;;4935329;28;20283;-71
2021/06/15 14:44:46;;;;;;;5.05;1.10;;;;;;;;;;4945625;28;20518;-68
2021/06/15 14:47:12;;;;;;;1.53;0.70;;;;;;;;;;4940230;28;20024;-68